CheckWX is a tool to help pilots better visualize weather data.  It is not intended as a substitute for an official pre-flight weather briefing.

07:29:37 UTC

KWWR TAF
West Woodward Airport
Woodward, Oklahoma, USA
KWWR 210520Z 2106/2206 19012G18KT P6SM FEW030 BKN050 FM211600 18020G26KT P6SM SCT050 OVC250 PROB30 2121/2201 5SM TSRA BKN040CB

Sep-21@
06:00 UTC

Sep-21 @ 06:00 UTC

Sep-21@
16:00 UTC

Sep-21 @ 16:00 UTC

KWWR 210520Z 2106/2206 19012G18KT P6SM FEW030 BKN050
Wind
  • 190° at 12 KTS
  • {Gusting to 18 KTS
Cloud Levels
  • Few at 3,000' AGL
  • Broken at 5,000' AGL

Sep-21@
16:00 UTC

Sep-21 @ 16:00 UTC

Sep-22@
06:00 UTC

Sep-22 @ 06:00 UTC

FM211600 18020G26KT P6SM SCT050 OVC250

From

From Standard forecast or significant change

Wind
  • 180° at 20 KTS
  • {Gusting to 26 KTS
Cloud Levels
  • Scattered at 5,000' AGL
  • Overcast at 25,000' AGL

Sep-21@
21:00 UTC

Sep-21 @ 21:00 UTC

Sep-22@
01:00 UTC

Sep-22 @ 01:00 UTC

PROB30 2121/2201 5SM TSRA BKN040CB

Probable - 30% Likelihood

Probable - 30% Likelihood during this time.

Conditions
Thunderstorm, Rain
Cloud Levels
  • Broken at 4,000' AGL